Conover, NC

7:07 PM EST on December 24, 2014 (GMT -0500)
Morganton-Lenoir | Change Station
CLOSE
Current Station
Airport
Location: Morganton,
Elevation: 1270 ft
Nearby Weather Stations
Active Advisory: Dense Fog Advisory

Elev 1270 ft 35.82 °N, 81.61 °W | Updated 12 minutes ago

Fog
Fog
49 °F
Feels Like 49 °F
N
0
Wind Variable Wind from North

Today
High -- | Low -- °F
--% Chance of Precip.
Yesterday
High -- | Low -- °F
Precip. -- in
7:32 AM 5:16 PM
Waxing Crescent, 12% visible
Pressure 29.71 in
Visibility 0.2 miles
Clouds Overcast 200 ft
Dew Point 49 °F
Humidity 100%
Rainfall 1.51 in
Snow Depth Not available.
UV 0 out of 12
Pollen .30 out of 12
Air Quality Not available.
Flu Activity Not available.
METAR KMRN 242355Z AUTO 00000KT 1/4SM FG OVC002 10/10 A2971 RMK AO2 T00960096 10101 20096

More Conditions Fewer Conditions

Pressure 29.71 in
Visibility 0.2 miles
Clouds Overcast 200 ft
Dew Point 49 °F
Humidity 100%
Rainfall 1.51 in
Snow Depth Not available.
UV 0 out of 12
Pollen .30 out of 12
Air Quality Not available.
Flu Activity Not available.
METAR KMRN 242355Z AUTO 00000KT 1/4SM FG OVC002 10/10 A2971 RMK AO2 T00960096 10101 20096

More Conditions Fewer Conditions

10-Day Weather Forecast

Almanac

Astronomy

Dec. 24, 2014 Rise Set
Actual Time
Civil Twilight
Nautical Twilight
Astronomical Twilight
Moon
Length of Visible Light
Length of Day
Tomorrow will be .
, % of the Moon is Illuminated

Today's Extremes

State Highs State Lows

Community

WunderPhotos

Upload Photos

1,780,188 photos uploaded!

WunderBlogs® & News

Nearby

Air Quality

  Air Quality AQ Index Pollutant
Not available.

Snow Depth

Station Depth Elevation

Earthquake Activity

City Distance Mag. Time & Date
Minimum magnitude displayed is 2.5.

Coastal Water Temperatures

Place Temperature

Nearby Weather Stations